sensor_id;sensor_type;location;lat;lon;timestamp;temperature;humidity
19232;DHT22;9750;48.730;10.294;2022-09-29T00:00:39;8.40;99.90
19232;DHT22;9750;48.730;10.294;2022-09-29T00:03:06;8.40;99.90
19232;DHT22;9750;48.730;10.294;2022-09-29T00:05:34;8.40;99.90
19232;DHT22;9750;48.730;10.294;2022-09-29T00:08:01;8.30;99.90
19232;DHT22;9750;48.730;10.294;2022-09-29T00:10:29;8.30;99.90
19232;DHT22;9750;48.730;10.294;2022-09-29T00:12:56;8.30;99.90
19232;DHT22;9750;48.730;10.294;2022-09-29T00:15:25;8.30;99.90
19232;DHT22;9750;48.730;10.294;2022-09-29T00:17:52;8.30;99.90
19232;DHT22;9750;48.730;10.294;2022-09-29T00:20:19;8.20;99.90
19232;DHT22;9750;48.730;10.294;2022-09-29T00:22:49;8.30;99.90
19232;DHT22;9750;48.730;10.294;2022-09-29T00:25:17;8.20;99.90
19232;DHT22;9750;48.730;10.294;2022-09-29T00:27:44;8.20;99.90
19232;DHT22;9750;48.730;10.294;2022-09-29T00:30:12;8.20;99.90
19232;DHT22;9750;48.730;10.294;2022-09-29T00:32:40;8.20;99.90
19232;DHT22;9750;48.730;10.294;2022-09-29T00:35:09;8.20;99.90
19232;DHT22;9750;48.730;10.294;2022-09-29T00:37:37;8.20;99.90
19232;DHT22;9750;48.730;10.294;2022-09-29T00:40:05;8.20;99.90
19232;DHT22;9750;48.730;10.294;2022-09-29T00:42:34;8.20;99.90
19232;DHT22;9750;48.730;10.294;2022-09-29T00:45:11;8.20;99.90
19232;DHT22;9750;48.730;10.294;2022-09-29T00:47:44;8.10;99.90
19232;DHT22;9750;48.730;10.294;2022-09-29T00:50:17;8.10;99.90
19232;DHT22;9750;48.730;10.294;2022-09-29T00:52:49;8.10;99.70
19232;DHT22;9750;48.730;10.294;2022-09-29T00:55:21;8.10;99.70
19232;DHT22;9750;48.730;10.294;2022-09-29T00:57:54;8.00;99.70
19232;DHT22;9750;48.730;10.294;2022-09-29T01:03:46;8.00;99.90
19232;DHT22;9750;48.730;10.294;2022-09-29T01:06:18;8.00;99.90
19232;DHT22;9750;48.730;10.294;2022-09-29T01:08:50;8.00;99.90
19232;DHT22;9750;48.730;10.294;2022-09-29T01:11:20;8.00;99.90
19232;DHT22;9750;48.730;10.294;2022-09-29T01:13:48;8.00;99.90
19232;DHT22;9750;48.730;10.294;2022-09-29T01:16:16;7.90;99.90
19232;DHT22;9750;48.730;10.294;2022-09-29T01:18:46;7.90;99.90
19232;DHT22;9750;48.730;10.294;2022-09-29T01:21:20;7.90;99.90
19232;DHT22;9750;48.730;10.294;2022-09-29T01:27:13;7.90;99.90
19232;DHT22;9750;48.730;10.294;2022-09-29T01:30:01;8.00;99.90
19232;DHT22;9750;48.730;10.294;2022-09-29T01:32:39;8.10;99.90
19232;DHT22;9750;48.730;10.294;2022-09-29T01:35:15;8.10;99.90
19232;DHT22;9750;48.730;10.294;2022-09-29T01:37:53;8.10;99.90
19232;DHT22;9750;48.730;10.294;2022-09-29T01:40:28;8.20;99.90
19232;DHT22;9750;48.730;10.294;2022-09-29T01:43:03;8.20;99.90
19232;DHT22;9750;48.730;10.294;2022-09-29T01:45:33;8.20;99.90
19232;DHT22;9750;48.730;10.294;2022-09-29T01:48:04;8.20;99.90
19232;DHT22;9750;48.730;10.294;2022-09-29T01:50:36;8.20;99.90
19232;DHT22;9750;48.730;10.294;2022-09-29T01:53:08;8.10;99.90
19232;DHT22;9750;48.730;10.294;2022-09-29T01:55:42;8.00;99.90
19232;DHT22;9750;48.730;10.294;2022-09-29T01:58:16;8.00;99.90
19232;DHT22;9750;48.730;10.294;2022-09-29T02:00:47;8.00;99.90
19232;DHT22;9750;48.730;10.294;2022-09-29T02:03:20;8.00;99.90
19232;DHT22;9750;48.730;10.294;2022-09-29T02:05:50;8.00;99.90
19232;DHT22;9750;48.730;10.294;2022-09-29T02:08:21;8.00;99.90
19232;DHT22;9750;48.730;10.294;2022-09-29T02:10:54;8.00;99.90
19232;DHT22;9750;48.730;10.294;2022-09-29T02:13:24;8.00;99.90
19232;DHT22;9750;48.730;10.294;2022-09-29T02:15:55;8.00;99.90
19232;DHT22;9750;48.730;10.294;2022-09-29T02:18:28;7.90;99.90
19232;DHT22;9750;48.730;10.294;2022-09-29T02:20:56;7.80;99.90
19232;DHT22;9750;48.730;10.294;2022-09-29T02:23:24;7.70;99.90
19232;DHT22;9750;48.730;10.294;2022-09-29T02:25:51;7.70;99.90
19232;DHT22;9750;48.730;10.294;2022-09-29T02:28:20;7.70;99.90
19232;DHT22;9750;48.730;10.294;2022-09-29T02:30:49;7.70;99.90
19232;DHT22;9750;48.730;10.294;2022-09-29T02:33:18;7.70;99.90
19232;DHT22;9750;48.730;10.294;2022-09-29T02:35:57;7.60;99.90
19232;DHT22;9750;48.730;10.294;2022-09-29T02:38:34;7.70;99.90
19232;DHT22;9750;48.730;10.294;2022-09-29T02:41:06;7.70;99.90
19232;DHT22;9750;48.730;10.294;2022-09-29T02:44:00;7.70;99.90
19232;DHT22;9750;48.730;10.294;2022-09-29T02:46:42;7.70;99.90
19232;DHT22;9750;48.730;10.294;2022-09-29T02:49:25;7.70;99.90
19232;DHT22;9750;48.730;10.294;2022-09-29T02:51:58;7.80;99.90
19232;DHT22;9750;48.730;10.294;2022-09-29T02:54:38;7.80;99.90
19232;DHT22;9750;48.730;10.294;2022-09-29T02:57:16;7.80;99.90
19232;DHT22;9750;48.730;10.294;2022-09-29T02:59:58;7.80;99.90
19232;DHT22;9750;48.730;10.294;2022-09-29T03:02:31;7.70;99.90
19232;DHT22;9750;48.730;10.294;2022-09-29T03:04:58;7.80;99.90
19232;DHT22;9750;48.730;10.294;2022-09-29T03:07:27;7.80;99.90
19232;DHT22;9750;48.730;10.294;2022-09-29T03:13:07;7.80;99.90
19232;DHT22;9750;48.730;10.294;2022-09-29T03:15:35;7.80;99.90
19232;DHT22;9750;48.730;10.294;2022-09-29T03:18:02;7.80;99.90
19232;DHT22;9750;48.730;10.294;2022-09-29T03:21:04;7.80;99.90
19232;DHT22;9750;48.730;10.294;2022-09-29T03:23:32;7.80;99.90
19232;DHT22;9750;48.730;10.294;2022-09-29T03:26:00;7.80;99.90
19232;DHT22;9750;48.730;10.294;2022-09-29T03:28:27;7.80;99.90
19232;DHT22;9750;48.730;10.294;2022-09-29T03:30:54;7.70;99.90
19232;DHT22;9750;48.730;10.294;2022-09-29T03:33:21;7.70;99.90
19232;DHT22;9750;48.730;10.294;2022-09-29T03:35:49;7.70;99.90
19232;DHT22;9750;48.730;10.294;2022-09-29T03:38:16;7.70;99.90
19232;DHT22;9750;48.730;10.294;2022-09-29T03:40:45;7.70;99.90
19232;DHT22;9750;48.730;10.294;2022-09-29T03:43:12;7.70;99.90
19232;DHT22;9750;48.730;10.294;2022-09-29T03:45:47;7.70;99.90
19232;DHT22;9750;48.730;10.294;2022-09-29T03:48:14;7.70;99.90
19232;DHT22;9750;48.730;10.294;2022-09-29T03:50:43;7.70;99.90
19232;DHT22;9750;48.730;10.294;2022-09-29T03:53:11;7.80;99.90
19232;DHT22;9750;48.730;10.294;2022-09-29T03:55:38;7.80;99.90
19232;DHT22;9750;48.730;10.294;2022-09-29T03:58:07;7.80;99.90
19232;DHT22;9750;48.730;10.294;2022-09-29T04:00:35;7.80;99.90
19232;DHT22;9750;48.730;10.294;2022-09-29T04:03:02;7.90;99.90
19232;DHT22;9750;48.730;10.294;2022-09-29T04:05:29;7.90;99.90
19232;DHT22;9750;48.730;10.294;2022-09-29T04:07:57;7.80;99.90
19232;DHT22;9750;48.730;10.294;2022-09-29T04:10:24;7.80;99.90
19232;DHT22;9750;48.730;10.294;2022-09-29T04:12:51;7.80;99.90
19232;DHT22;9750;48.730;10.294;2022-09-29T04:15:20;7.90;99.90
19232;DHT22;9750;48.730;10.294;2022-09-29T04:17:47;7.80;99.90
19232;DHT22;9750;48.730;10.294;2022-09-29T04:23:36;7.70;99.90
19232;DHT22;9750;48.730;10.294;2022-09-29T04:26:04;7.60;99.90
19232;DHT22;9750;48.730;10.294;2022-09-29T04:28:32;7.60;99.90
19232;DHT22;9750;48.730;10.294;2022-09-29T04:31:01;7.60;99.90
19232;DHT22;9750;48.730;10.294;2022-09-29T04:33:28;7.60;99.90
19232;DHT22;9750;48.730;10.294;2022-09-29T04:35:56;7.60;99.90
19232;DHT22;9750;48.730;10.294;2022-09-29T04:38:24;7.70;99.90
19232;DHT22;9750;48.730;10.294;2022-09-29T04:40:52;7.70;99.90
19232;DHT22;9750;48.730;10.294;2022-09-29T04:43:19;7.70;99.90
19232;DHT22;9750;48.730;10.294;2022-09-29T04:45:46;7.70;99.90
19232;DHT22;9750;48.730;10.294;2022-09-29T04:48:15;7.70;99.90
19232;DHT22;9750;48.730;10.294;2022-09-29T04:50:42;7.70;99.90
19232;DHT22;9750;48.730;10.294;2022-09-29T04:53:11;7.70;99.90
19232;DHT22;9750;48.730;10.294;2022-09-29T04:55:38;7.70;99.90
19232;DHT22;9750;48.730;10.294;2022-09-29T04:58:06;7.80;99.90
19232;DHT22;9750;48.730;10.294;2022-09-29T05:00:33;7.80;99.90
19232;DHT22;9750;48.730;10.294;2022-09-29T05:03:00;7.80;99.90
19232;DHT22;9750;48.730;10.294;2022-09-29T05:05:29;7.70;99.90
19232;DHT22;9750;48.730;10.294;2022-09-29T05:07:56;7.70;99.90
19232;DHT22;9750;48.730;10.294;2022-09-29T05:10:25;7.80;99.90
19232;DHT22;9750;48.730;10.294;2022-09-29T05:12:52;7.70;99.90
19232;DHT22;9750;48.730;10.294;2022-09-29T05:15:20;7.70;99.90
19232;DHT22;9750;48.730;10.294;2022-09-29T05:17:47;7.80;99.90
19232;DHT22;9750;48.730;10.294;2022-09-29T05:20:14;7.80;99.90
19232;DHT22;9750;48.730;10.294;2022-09-29T05:22:43;7.80;99.90
19232;DHT22;9750;48.730;10.294;2022-09-29T05:25:10;7.80;99.90
19232;DHT22;9750;48.730;10.294;2022-09-29T05:27:38;7.80;99.90
19232;DHT22;9750;48.730;10.294;2022-09-29T05:30:06;7.90;99.90
19232;DHT22;9750;48.730;10.294;2022-09-29T05:32:33;7.90;99.90
19232;DHT22;9750;48.730;10.294;2022-09-29T05:35:01;7.90;99.90
19232;DHT22;9750;48.730;10.294;2022-09-29T05:37:28;7.90;99.90
19232;DHT22;9750;48.730;10.294;2022-09-29T05:43:19;7.90;99.90
19232;DHT22;9750;48.730;10.294;2022-09-29T05:45:46;7.90;99.90
19232;DHT22;9750;48.730;10.294;2022-09-29T05:48:14;7.90;99.90
19232;DHT22;9750;48.730;10.294;2022-09-29T05:50:42;7.90;99.90
19232;DHT22;9750;48.730;10.294;2022-09-29T05:53:10;7.90;99.90
19232;DHT22;9750;48.730;10.294;2022-09-29T05:55:38;7.80;99.90
19232;DHT22;9750;48.730;10.294;2022-09-29T05:58:06;7.80;99.90
19232;DHT22;9750;48.730;10.294;2022-09-29T06:00:35;7.90;99.90
19232;DHT22;9750;48.730;10.294;2022-09-29T06:03:02;7.90;99.90
19232;DHT22;9750;48.730;10.294;2022-09-29T06:05:29;7.90;99.90
19232;DHT22;9750;48.730;10.294;2022-09-29T06:07:57;7.90;99.90
19232;DHT22;9750;48.730;10.294;2022-09-29T06:13:52;7.80;99.90
19232;DHT22;9750;48.730;10.294;2022-09-29T06:16:22;7.80;99.90
19232;DHT22;9750;48.730;10.294;2022-09-29T06:18:50;7.80;99.90
19232;DHT22;9750;48.730;10.294;2022-09-29T06:21:19;7.80;99.90
19232;DHT22;9750;48.730;10.294;2022-09-29T06:23:47;7.90;99.90
19232;DHT22;9750;48.730;10.294;2022-09-29T06:26:16;7.90;99.90
19232;DHT22;9750;48.730;10.294;2022-09-29T06:28:43;8.00;99.90
19232;DHT22;9750;48.730;10.294;2022-09-29T06:31:12;8.00;99.90
19232;DHT22;9750;48.730;10.294;2022-09-29T06:33:41;8.00;99.90
19232;DHT22;9750;48.730;10.294;2022-09-29T06:36:12;8.10;99.90
19232;DHT22;9750;48.730;10.294;2022-09-29T06:38:58;8.10;99.90
19232;DHT22;9750;48.730;10.294;2022-09-29T06:41:26;8.10;99.90
19232;DHT22;9750;48.730;10.294;2022-09-29T06:43:54;8.10;99.90
19232;DHT22;9750;48.730;10.294;2022-09-29T06:46:22;8.20;99.90
19232;DHT22;9750;48.730;10.294;2022-09-29T06:48:53;8.20;99.90
19232;DHT22;9750;48.730;10.294;2022-09-29T06:51:21;8.20;99.90
19232;DHT22;9750;48.730;10.294;2022-09-29T06:53:49;8.20;99.90
19232;DHT22;9750;48.730;10.294;2022-09-29T06:56:17;8.30;99.90
19232;DHT22;9750;48.730;10.294;2022-09-29T06:58:45;8.30;99.90
19232;DHT22;9750;48.730;10.294;2022-09-29T07:01:12;8.30;99.90
19232;DHT22;9750;48.730;10.294;2022-09-29T07:03:40;8.40;99.90
19232;DHT22;9750;48.730;10.294;2022-09-29T07:06:10;8.50;99.90
19232;DHT22;9750;48.730;10.294;2022-09-29T07:08:37;8.60;99.90
19232;DHT22;9750;48.730;10.294;2022-09-29T07:11:05;8.60;99.90
19232;DHT22;9750;48.730;10.294;2022-09-29T07:13:33;8.70;99.90
19232;DHT22;9750;48.730;10.294;2022-09-29T07:16:04;8.80;99.90
19232;DHT22;9750;48.730;10.294;2022-09-29T07:18:35;8.80;99.90
19232;DHT22;9750;48.730;10.294;2022-09-29T07:21:03;8.90;99.90
19232;DHT22;9750;48.730;10.294;2022-09-29T07:23:32;8.90;99.90
19232;DHT22;9750;48.730;10.294;2022-09-29T07:26:00;9.00;99.90
19232;DHT22;9750;48.730;10.294;2022-09-29T07:28:28;9.00;99.90
19232;DHT22;9750;48.730;10.294;2022-09-29T07:30:59;9.10;99.90
19232;DHT22;9750;48.730;10.294;2022-09-29T07:33:26;9.10;99.90
19232;DHT22;9750;48.730;10.294;2022-09-29T07:35:54;9.20;99.90
19232;DHT22;9750;48.730;10.294;2022-09-29T07:38:22;9.20;99.90
19232;DHT22;9750;48.730;10.294;2022-09-29T07:40:51;9.30;99.90
19232;DHT22;9750;48.730;10.294;2022-09-29T07:43:19;9.30;99.90
19232;DHT22;9750;48.730;10.294;2022-09-29T07:45:48;9.30;99.90
19232;DHT22;9750;48.730;10.294;2022-09-29T07:48:15;9.20;99.90
19232;DHT22;9750;48.730;10.294;2022-09-29T07:50:44;9.30;99.90
19232;DHT22;9750;48.730;10.294;2022-09-29T07:53:12;9.20;99.90
19232;DHT22;9750;48.730;10.294;2022-09-29T07:55:39;9.30;99.90
19232;DHT22;9750;48.730;10.294;2022-09-29T07:58:08;9.40;99.90
19232;DHT22;9750;48.730;10.294;2022-09-29T08:00:38;9.60;99.90
19232;DHT22;9750;48.730;10.294;2022-09-29T08:03:06;9.60;99.90
19232;DHT22;9750;48.730;10.294;2022-09-29T08:05:33;9.60;99.90
19232;DHT22;9750;48.730;10.294;2022-09-29T08:08:02;9.50;99.90
19232;DHT22;9750;48.730;10.294;2022-09-29T08:10:31;9.50;99.90
19232;DHT22;9750;48.730;10.294;2022-09-29T08:12:58;9.60;99.90
19232;DHT22;9750;48.730;10.294;2022-09-29T08:15:27;9.60;99.90
19232;DHT22;9750;48.730;10.294;2022-09-29T08:17:55;9.70;99.90
19232;DHT22;9750;48.730;10.294;2022-09-29T08:20:22;9.80;99.90
19232;DHT22;9750;48.730;10.294;2022-09-29T08:22:51;10.00;99.90
19232;DHT22;9750;48.730;10.294;2022-09-29T08:25:20;10.10;99.90
19232;DHT22;9750;48.730;10.294;2022-09-29T08:27:47;10.20;99.90
19232;DHT22;9750;48.730;10.294;2022-09-29T08:30:14;10.30;99.90
19232;DHT22;9750;48.730;10.294;2022-09-29T08:32:43;10.40;99.90
19232;DHT22;9750;48.730;10.294;2022-09-29T08:35:16;10.40;99.90
19232;DHT22;9750;48.730;10.294;2022-09-29T08:37:43;10.40;99.90
19232;DHT22;9750;48.730;10.294;2022-09-29T08:40:11;10.30;99.90
19232;DHT22;9750;48.730;10.294;2022-09-29T08:42:47;10.40;99.90
19232;DHT22;9750;48.730;10.294;2022-09-29T08:45:24;10.40;99.90
19232;DHT22;9750;48.730;10.294;2022-09-29T08:48:02;10.40;99.90
19232;DHT22;9750;48.730;10.294;2022-09-29T08:53:54;10.60;99.90
19232;DHT22;9750;48.730;10.294;2022-09-29T08:56:24;10.60;99.90
19232;DHT22;9750;48.730;10.294;2022-09-29T08:58:52;10.70;99.90
19232;DHT22;9750;48.730;10.294;2022-09-29T09:01:26;10.70;99.90
19232;DHT22;9750;48.730;10.294;2022-09-29T09:04:26;10.80;99.90
19232;DHT22;9750;48.730;10.294;2022-09-29T09:07:06;10.90;99.90
19232;DHT22;9750;48.730;10.294;2022-09-29T09:09:54;11.00;99.90
19232;DHT22;9750;48.730;10.294;2022-09-29T09:12:35;11.10;99.90
19232;DHT22;9750;48.730;10.294;2022-09-29T09:15:18;11.10;99.90
19232;DHT22;9750;48.730;10.294;2022-09-29T09:17:58;11.00;99.90
19232;DHT22;9750;48.730;10.294;2022-09-29T09:23:43;11.00;99.90
19232;DHT22;9750;48.730;10.294;2022-09-29T09:26:13;11.00;99.90
19232;DHT22;9750;48.730;10.294;2022-09-29T09:28:42;11.10;99.90
19232;DHT22;9750;48.730;10.294;2022-09-29T09:31:17;11.20;99.90
19232;DHT22;9750;48.730;10.294;2022-09-29T09:33:48;11.30;99.90
19232;DHT22;9750;48.730;10.294;2022-09-29T09:36:20;11.40;99.90
19232;DHT22;9750;48.730;10.294;2022-09-29T09:38:54;11.40;99.90
19232;DHT22;9750;48.730;10.294;2022-09-29T09:41:27;11.50;99.90
19232;DHT22;9750;48.730;10.294;2022-09-29T09:43:57;11.60;99.90
19232;DHT22;9750;48.730;10.294;2022-09-29T09:46:28;11.70;99.90
19232;DHT22;9750;48.730;10.294;2022-09-29T09:49:02;11.80;99.90
19232;DHT22;9750;48.730;10.294;2022-09-29T09:51:37;11.90;99.90
19232;DHT22;9750;48.730;10.294;2022-09-29T09:54:13;12.00;99.90
19232;DHT22;9750;48.730;10.294;2022-09-29T09:57:01;12.10;99.90
19232;DHT22;9750;48.730;10.294;2022-09-29T09:59:42;12.20;99.90
19232;DHT22;9750;48.730;10.294;2022-09-29T10:02:16;12.20;99.90
19232;DHT22;9750;48.730;10.294;2022-09-29T10:04:48;12.30;99.90
19232;DHT22;9750;48.730;10.294;2022-09-29T10:07:17;12.40;99.80
19232;DHT22;9750;48.730;10.294;2022-09-29T10:09:47;12.50;99.40
19232;DHT22;9750;48.730;10.294;2022-09-29T10:12:15;12.50;99.70
19232;DHT22;9750;48.730;10.294;2022-09-29T10:14:48;12.40;98.90
19232;DHT22;9750;48.730;10.294;2022-09-29T10:17:18;12.40;99.20
19232;DHT22;9750;48.730;10.294;2022-09-29T10:19:57;12.40;98.70
19232;DHT22;9750;48.730;10.294;2022-09-29T10:22:25;12.40;98.50
19232;DHT22;9750;48.730;10.294;2022-09-29T10:25:05;12.50;98.70
19232;DHT22;9750;48.730;10.294;2022-09-29T10:27:34;12.50;98.50
19232;DHT22;9750;48.730;10.294;2022-09-29T10:30:02;12.70;98.90
19232;DHT22;9750;48.730;10.294;2022-09-29T10:32:30;12.70;98.50
19232;DHT22;9750;48.730;10.294;2022-09-29T10:35:07;12.70;97.90
19232;DHT22;9750;48.730;10.294;2022-09-29T10:37:37;12.70;97.40
19232;DHT22;9750;48.730;10.294;2022-09-29T10:40:16;12.70;98.00
19232;DHT22;9750;48.730;10.294;2022-09-29T10:42:46;12.80;98.30
19232;DHT22;9750;48.730;10.294;2022-09-29T10:45:16;12.70;98.00
19232;DHT22;9750;48.730;10.294;2022-09-29T10:47:46;12.80;97.60
19232;DHT22;9750;48.730;10.294;2022-09-29T10:50:16;12.80;97.50
19232;DHT22;9750;48.730;10.294;2022-09-29T10:52:46;12.80;97.40
19232;DHT22;9750;48.730;10.294;2022-09-29T10:55:19;12.80;97.00
19232;DHT22;9750;48.730;10.294;2022-09-29T10:57:47;12.80;97.10
19232;DHT22;9750;48.730;10.294;2022-09-29T11:00:26;12.80;97.20
19232;DHT22;9750;48.730;10.294;2022-09-29T11:03:00;12.80;96.70
19232;DHT22;9750;48.730;10.294;2022-09-29T11:05:30;12.80;96.70
19232;DHT22;9750;48.730;10.294;2022-09-29T11:07:57;12.90;97.00
19232;DHT22;9750;48.730;10.294;2022-09-29T11:10:29;13.00;96.10
19232;DHT22;9750;48.730;10.294;2022-09-29T11:12:58;13.00;95.70
19232;DHT22;9750;48.730;10.294;2022-09-29T11:15:28;13.00;95.80
19232;DHT22;9750;48.730;10.294;2022-09-29T11:17:56;13.00;96.20
19232;DHT22;9750;48.730;10.294;2022-09-29T11:20:28;13.00;96.60
19232;DHT22;9750;48.730;10.294;2022-09-29T11:23:17;13.00;96.50
19232;DHT22;9750;48.730;10.294;2022-09-29T11:26:13;13.00;96.30
19232;DHT22;9750;48.730;10.294;2022-09-29T11:29:00;13.00;96.20
19232;DHT22;9750;48.730;10.294;2022-09-29T11:31:41;13.10;96.70
19232;DHT22;9750;48.730;10.294;2022-09-29T11:37:04;13.10;96.70
19232;DHT22;9750;48.730;10.294;2022-09-29T11:40:10;13.10;96.80
19232;DHT22;9750;48.730;10.294;2022-09-29T11:42:54;13.10;97.20
19232;DHT22;9750;48.730;10.294;2022-09-29T11:45:32;13.10;96.50
19232;DHT22;9750;48.730;10.294;2022-09-29T11:48:29;13.10;96.50
19232;DHT22;9750;48.730;10.294;2022-09-29T11:51:08;13.10;96.60
19232;DHT22;9750;48.730;10.294;2022-09-29T11:54:02;13.20;96.70
19232;DHT22;9750;48.730;10.294;2022-09-29T11:56:38;13.30;96.50
19232;DHT22;9750;48.730;10.294;2022-09-29T11:59:35;13.30;96.10
19232;DHT22;9750;48.730;10.294;2022-09-29T12:02:38;13.40;96.20
19232;DHT22;9750;48.730;10.294;2022-09-29T12:05:15;13.40;96.20
19232;DHT22;9750;48.730;10.294;2022-09-29T12:07:49;13.50;95.50
19232;DHT22;9750;48.730;10.294;2022-09-29T12:10:43;13.50;94.90
19232;DHT22;9750;48.730;10.294;2022-09-29T12:13:19;13.60;96.00
19232;DHT22;9750;48.730;10.294;2022-09-29T12:15:54;13.70;95.40
19232;DHT22;9750;48.730;10.294;2022-09-29T12:18:25;13.80;94.90
19232;DHT22;9750;48.730;10.294;2022-09-29T12:20:57;13.80;95.10
19232;DHT22;9750;48.730;10.294;2022-09-29T12:23:28;13.90;94.30
19232;DHT22;9750;48.730;10.294;2022-09-29T12:25:59;13.90;93.10
19232;DHT22;9750;48.730;10.294;2022-09-29T12:28:35;14.00;93.30
19232;DHT22;9750;48.730;10.294;2022-09-29T12:31:09;14.00;93.30
19232;DHT22;9750;48.730;10.294;2022-09-29T12:33:40;14.10;93.20
19232;DHT22;9750;48.730;10.294;2022-09-29T12:36:19;14.20;93.40
19232;DHT22;9750;48.730;10.294;2022-09-29T12:39:15;14.20;93.40
19232;DHT22;9750;48.730;10.294;2022-09-29T12:41:50;14.30;93.10
19232;DHT22;9750;48.730;10.294;2022-09-29T12:44:25;14.30;92.70
19232;DHT22;9750;48.730;10.294;2022-09-29T12:47:01;14.30;92.80
19232;DHT22;9750;48.730;10.294;2022-09-29T12:49:36;14.40;92.80
19232;DHT22;9750;48.730;10.294;2022-09-29T12:52:11;14.40;93.20
19232;DHT22;9750;48.730;10.294;2022-09-29T12:54:44;14.50;93.50
19232;DHT22;9750;48.730;10.294;2022-09-29T12:57:14;14.50;92.40
19232;DHT22;9750;48.730;10.294;2022-09-29T12:59:45;14.40;92.40
19232;DHT22;9750;48.730;10.294;2022-09-29T13:02:34;14.30;92.40
19232;DHT22;9750;48.730;10.294;2022-09-29T13:05:26;14.30;93.10
19232;DHT22;9750;48.730;10.294;2022-09-29T13:08:18;14.30;93.20
19232;DHT22;9750;48.730;10.294;2022-09-29T13:11:09;14.30;93.30
19232;DHT22;9750;48.730;10.294;2022-09-29T13:14:06;14.30;93.00
19232;DHT22;9750;48.730;10.294;2022-09-29T13:16:55;14.30;92.70
19232;DHT22;9750;48.730;10.294;2022-09-29T13:19:50;14.30;92.60
19232;DHT22;9750;48.730;10.294;2022-09-29T13:22:32;14.30;92.90
19232;DHT22;9750;48.730;10.294;2022-09-29T13:25:14;14.30;92.70
19232;DHT22;9750;48.730;10.294;2022-09-29T13:27:44;14.30;92.30
19232;DHT22;9750;48.730;10.294;2022-09-29T13:30:14;14.20;92.00
19232;DHT22;9750;48.730;10.294;2022-09-29T13:32:44;14.20;92.10
19232;DHT22;9750;48.730;10.294;2022-09-29T13:35:16;14.10;92.60
19232;DHT22;9750;48.730;10.294;2022-09-29T13:37:47;14.10;92.70
19232;DHT22;9750;48.730;10.294;2022-09-29T13:40:21;14.10;92.80
19232;DHT22;9750;48.730;10.294;2022-09-29T13:42:51;14.00;92.60
19232;DHT22;9750;48.730;10.294;2022-09-29T13:45:41;14.00;92.50
19232;DHT22;9750;48.730;10.294;2022-09-29T13:48:45;13.90;92.70
19232;DHT22;9750;48.730;10.294;2022-09-29T13:51:37;13.90;93.30
19232;DHT22;9750;48.730;10.294;2022-09-29T13:57:21;13.90;92.90
19232;DHT22;9750;48.730;10.294;2022-09-29T14:00:19;13.90;93.30
19232;DHT22;9750;48.730;10.294;2022-09-29T14:02:49;13.80;93.10
19232;DHT22;9750;48.730;10.294;2022-09-29T14:05:46;13.80;93.10
19232;DHT22;9750;48.730;10.294;2022-09-29T14:08:27;13.80;93.30
19232;DHT22;9750;48.730;10.294;2022-09-29T14:11:21;13.80;93.80
19232;DHT22;9750;48.730;10.294;2022-09-29T14:13:54;13.90;93.70
19232;DHT22;9750;48.730;10.294;2022-09-29T14:16:46;13.90;93.40
19232;DHT22;9750;48.730;10.294;2022-09-29T14:19:34;13.90;93.40
19232;DHT22;9750;48.730;10.294;2022-09-29T14:22:03;13.90;93.20
19232;DHT22;9750;48.730;10.294;2022-09-29T14:24:43;13.90;92.90
19232;DHT22;9750;48.730;10.294;2022-09-29T14:27:30;13.90;93.10
19232;DHT22;9750;48.730;10.294;2022-09-29T14:30:11;14.00;93.10
19232;DHT22;9750;48.730;10.294;2022-09-29T14:32:45;14.00;93.30
19232;DHT22;9750;48.730;10.294;2022-09-29T14:35:18;14.10;93.10
19232;DHT22;9750;48.730;10.294;2022-09-29T14:37:56;14.20;93.30
19232;DHT22;9750;48.730;10.294;2022-09-29T14:40:26;14.20;92.80
19232;DHT22;9750;48.730;10.294;2022-09-29T14:43:07;14.20;93.20
19232;DHT22;9750;48.730;10.294;2022-09-29T14:45:44;14.20;93.10
19232;DHT22;9750;48.730;10.294;2022-09-29T14:48:37;14.30;93.30
19232;DHT22;9750;48.730;10.294;2022-09-29T14:51:28;14.40;93.30
19232;DHT22;9750;48.730;10.294;2022-09-29T14:54:21;14.50;93.50
19232;DHT22;9750;48.730;10.294;2022-09-29T14:56:58;14.50;94.00
19232;DHT22;9750;48.730;10.294;2022-09-29T14:59:41;14.50;94.30
19232;DHT22;9750;48.730;10.294;2022-09-29T15:02:22;14.40;94.60
19232;DHT22;9750;48.730;10.294;2022-09-29T15:04:52;14.30;94.50
19232;DHT22;9750;48.730;10.294;2022-09-29T15:07:21;14.20;94.50
19232;DHT22;9750;48.730;10.294;2022-09-29T15:09:50;14.30;94.30
19232;DHT22;9750;48.730;10.294;2022-09-29T15:12:23;14.30;94.50
19232;DHT22;9750;48.730;10.294;2022-09-29T15:14:51;14.40;94.30
19232;DHT22;9750;48.730;10.294;2022-09-29T15:17:32;14.50;94.20
19232;DHT22;9750;48.730;10.294;2022-09-29T15:20:09;14.60;94.20
19232;DHT22;9750;48.730;10.294;2022-09-29T15:22:56;14.60;94.10
19232;DHT22;9750;48.730;10.294;2022-09-29T15:25:28;14.50;93.90
19232;DHT22;9750;48.730;10.294;2022-09-29T15:28:01;14.40;94.00
19232;DHT22;9750;48.730;10.294;2022-09-29T15:31:02;14.30;94.50
19232;DHT22;9750;48.730;10.294;2022-09-29T15:33:33;14.20;94.50
19232;DHT22;9750;48.730;10.294;2022-09-29T15:36:03;14.20;94.60
19232;DHT22;9750;48.730;10.294;2022-09-29T15:38:33;14.10;94.60
19232;DHT22;9750;48.730;10.294;2022-09-29T15:41:12;14.10;94.70
19232;DHT22;9750;48.730;10.294;2022-09-29T15:43:44;14.10;94.70
19232;DHT22;9750;48.730;10.294;2022-09-29T15:46:20;14.00;95.00
19232;DHT22;9750;48.730;10.294;2022-09-29T15:49:10;13.80;95.30
19232;DHT22;9750;48.730;10.294;2022-09-29T15:51:39;13.80;95.90
19232;DHT22;9750;48.730;10.294;2022-09-29T15:54:09;13.70;95.70
19232;DHT22;9750;48.730;10.294;2022-09-29T15:56:37;13.70;95.70
19232;DHT22;9750;48.730;10.294;2022-09-29T15:59:20;13.60;95.80
19232;DHT22;9750;48.730;10.294;2022-09-29T16:02:01;13.60;96.00
19232;DHT22;9750;48.730;10.294;2022-09-29T16:04:31;13.50;96.00
19232;DHT22;9750;48.730;10.294;2022-09-29T16:06:59;13.50;96.20
19232;DHT22;9750;48.730;10.294;2022-09-29T16:09:28;13.40;96.30
19232;DHT22;9750;48.730;10.294;2022-09-29T16:11:56;13.40;96.50
19232;DHT22;9750;48.730;10.294;2022-09-29T16:14:26;13.40;96.70
19232;DHT22;9750;48.730;10.294;2022-09-29T16:16:56;13.30;96.70
19232;DHT22;9750;48.730;10.294;2022-09-29T16:19:26;13.20;96.90
19232;DHT22;9750;48.730;10.294;2022-09-29T16:21:57;13.20;96.90
19232;DHT22;9750;48.730;10.294;2022-09-29T16:24:27;13.10;96.80
19232;DHT22;9750;48.730;10.294;2022-09-29T16:26:56;13.10;96.90
19232;DHT22;9750;48.730;10.294;2022-09-29T16:29:30;13.00;96.90
19232;DHT22;9750;48.730;10.294;2022-09-29T16:31:58;13.00;97.10
19232;DHT22;9750;48.730;10.294;2022-09-29T16:34:28;12.90;97.10
19232;DHT22;9750;48.730;10.294;2022-09-29T16:36:58;12.90;97.10
19232;DHT22;9750;48.730;10.294;2022-09-29T16:42:51;12.80;97.20
19232;DHT22;9750;48.730;10.294;2022-09-29T16:45:20;12.80;97.20
19232;DHT22;9750;48.730;10.294;2022-09-29T16:47:49;12.70;97.20
19232;DHT22;9750;48.730;10.294;2022-09-29T16:50:18;12.70;97.30